This is the latest recevied weather packets stored in our database for station/object IU0KRR-10. If no packets are shown the sender has not sent any weather packets the latest 10 day(s).
| Time | Temp. | Humidity | Pressure | Rain* | Wind** | Luminosity | Snow |
|---|---|---|---|---|---|---|---|
| 1777883325 | 15.56° C | 43% | 874.8 hPa | - | - | - | - |
| 1777882424 | 16.11° C | 42% | 874.9 hPa | - | - | - | - |
| 1777881524 | 17.22° C | 42% | 874.8 hPa | - | - | - | - |
| 1777880624 | 19.44° C | 37% | 874.7 hPa | - | - | - | - |
| 1777879724 | 27.22° C | 26% | 875.9 hPa | - | - | - | - |
| 1777878934 | 26.67° C | 26% | 875.7 hPa | - | - | - | - |
| 1777878823 | 26.67° C | 26% | 875.7 hPa | - | - | - | - |
| 1777877962 | 26.11° C | 27% | 875.7 hPa | - | - | - | - |
| 1777877923 | 26.11° C | 27% | 875.7 hPa | - | - | - | - |
| 1777877021 | 25.56° C | 27% | 875.5 hPa | - | - | - | - |
| 1777876121 | 25.56° C | 27% | 875.5 hPa | - | - | - | - |
| 1777875221 | 25.56° C | 26% | 875.5 hPa | - | - | - | - |
| 1777874321 | 25° C | 26% | 875.4 hPa | - | - | - | - |
| 1777873421 | 25° C | 25% | 875.3 hPa | - | - | - | - |
| 1777872521 | 24.44° C | 26% | 875.2 hPa | - | - | - | - |
| 1777871621 | 23.89° C | 25% | 875 hPa | - | - | - | - |
| 1777870721 | 23.89° C | 24% | 875.1 hPa | - | - | - | - |
| 1777869820 | 23.89° C | 24% | 875 hPa | - | - | - | - |
| 1777868920 | 23.89° C | 25% | 875 hPa | - | - | - | - |
| 1777868020 | 23.89° C | 26% | 874.9 hPa | - | - | - | - |
| 1777867120 | 23.89° C | 25% | 874.9 hPa | - | - | - | - |
| 1777866271 | 23.89° C | 26% | 874.7 hPa | - | - | - | - |
| 1777866220 | 23.89° C | 26% | 874.7 hPa | - | - | - | - |
| 1777865319 | 23.33° C | 25% | 874.8 hPa | - | - | - | - |
| 1777864419 | 23.33° C | 25% | 874.9 hPa | - | - | - | - |
* Rain since midnight (hover to see other rain measurements)
** Current wind speed in m/s (hover to see current wind gust speed)